createdAt,value
2023-05-19T00:00:48.983Z,9.21
2023-05-19T00:03:55.099Z,9.18
2023-05-19T00:07:00.745Z,9.06
2023-05-19T00:10:04.012Z,8.92
2023-05-19T00:13:09.193Z,8.98
2023-05-19T00:16:13.477Z,8.95
2023-05-19T00:19:16.967Z,8.92
2023-05-19T00:22:19.711Z,8.86
2023-05-19T00:25:22.532Z,8.86
2023-05-19T00:28:26.529Z,8.85
2023-05-19T00:31:29.968Z,8.86
2023-05-19T00:34:32.601Z,8.73
2023-05-19T00:37:35.312Z,8.79
2023-05-19T00:40:37.996Z,8.74
2023-05-19T00:43:41.982Z,8.66
2023-05-19T00:46:44.761Z,8.69
2023-05-19T00:49:47.441Z,8.61
2023-05-19T00:52:50.088Z,8.63
2023-05-19T00:55:52.726Z,8.65
2023-05-19T00:58:57.084Z,8.66
2023-05-19T01:01:59.904Z,8.75
2023-05-19T01:05:03.048Z,8.76
2023-05-19T01:08:06.470Z,8.74
2023-05-19T01:11:10.277Z,8.75
2023-05-19T01:14:14.342Z,8.78
2023-05-19T01:17:26.221Z,8.80
2023-05-19T01:20:38.390Z,8.78
2023-05-19T01:23:54.117Z,8.85
2023-05-19T01:27:24.729Z,8.93
2023-05-19T01:30:31.266Z,8.92
2023-05-19T01:33:35.087Z,8.87
2023-05-19T01:36:39.490Z,8.89
2023-05-19T01:39:43.435Z,8.96
2023-05-19T01:42:48.165Z,8.91
2023-05-19T01:45:53.279Z,8.98
2023-05-19T01:48:56.824Z,9.00
2023-05-19T01:51:59.465Z,9.00
2023-05-19T01:55:02.099Z,8.96
2023-05-19T01:58:16.491Z,8.98
2023-05-19T02:01:31.711Z,8.95
2023-05-19T02:04:40.651Z,8.87
2023-05-19T02:07:49.616Z,8.94
2023-05-19T02:10:58.786Z,8.89
2023-05-19T02:14:05.897Z,8.87
2023-05-19T02:17:11.341Z,8.90
2023-05-19T02:20:14.434Z,8.92
2023-05-19T02:23:17.077Z,8.90
2023-05-19T02:26:19.740Z,9.02
2023-05-19T02:29:22.486Z,8.99
2023-05-19T02:32:26.715Z,9.00
2023-05-19T02:35:29.450Z,9.01
2023-05-19T02:38:32.576Z,8.98
2023-05-19T02:41:35.215Z,8.95
2023-05-19T02:44:37.935Z,9.03
2023-05-19T02:47:41.996Z,8.96
2023-05-19T02:50:44.661Z,8.98
2023-05-19T02:53:47.308Z,8.99
2023-05-19T02:56:50.033Z,8.92
2023-05-19T02:59:52.667Z,8.85
2023-05-19T03:02:56.708Z,8.91
2023-05-19T03:05:59.891Z,8.92
2023-05-19T03:09:02.549Z,8.91
2023-05-19T03:12:07.277Z,8.98
2023-05-19T03:15:13.034Z,8.89
2023-05-19T03:18:17.176Z,8.98
2023-05-19T03:21:19.878Z,8.98
2023-05-19T03:24:22.524Z,9.02
2023-05-19T03:27:25.761Z,9.06
2023-05-19T03:30:28.443Z,9.03
2023-05-19T03:33:32.478Z,9.03
2023-05-19T03:36:39.259Z,8.94
2023-05-19T03:39:41.903Z,9.03
2023-05-19T03:42:44.618Z,9.05
2023-05-19T03:45:47.309Z,9.08
2023-05-19T03:48:51.417Z,9.13
2023-05-19T03:51:54.076Z,9.07
2023-05-19T03:54:57.672Z,9.06
2023-05-19T03:58:00.372Z,9.04
2023-05-19T04:01:03.329Z,9.06
2023-05-19T04:04:07.550Z,9.03
2023-05-19T04:07:10.267Z,9.10
2023-05-19T04:10:13.716Z,9.04
2023-05-19T04:13:16.339Z,9.12
2023-05-19T04:16:19.177Z,9.07
2023-05-19T04:19:23.309Z,9.18
2023-05-19T04:22:26.114Z,9.18
2023-05-19T04:25:28.848Z,9.26
2023-05-19T04:28:31.485Z,9.28
2023-05-19T04:31:35.892Z,9.34
2023-05-19T04:34:40.401Z,9.35
2023-05-19T04:37:45.929Z,9.35
2023-05-19T04:40:50.173Z,9.48
2023-05-19T04:43:52.978Z,9.48
2023-05-19T04:46:58.247Z,9.59
2023-05-19T04:50:02.369Z,9.67
2023-05-19T04:53:05.025Z,9.72
2023-05-19T04:56:08.005Z,9.73
2023-05-19T04:59:10.857Z,9.82
2023-05-19T05:02:13.681Z,9.94
2023-05-19T05:05:17.870Z,9.97
2023-05-19T05:08:23.103Z,10.06
2023-05-19T05:11:26.293Z,10.14
2023-05-19T05:14:29.631Z,10.24
2023-05-19T05:17:32.830Z,10.32
2023-05-19T05:20:37.674Z,10.35
2023-05-19T05:23:40.782Z,10.49
2023-05-19T05:26:44.064Z,10.63
2023-05-19T05:29:46.746Z,10.67
2023-05-19T05:32:49.546Z,10.74
2023-05-19T05:35:53.681Z,10.85
2023-05-19T05:38:56.348Z,10.88
2023-05-19T05:41:59.018Z,10.83
2023-05-19T05:45:01.684Z,10.98
2023-05-19T05:48:05.043Z,10.89
2023-05-19T05:51:10.233Z,11.19
2023-05-19T05:54:13.966Z,11.28
2023-05-19T05:57:17.107Z,11.43
2023-05-19T06:00:22.294Z,11.66
2023-05-19T06:03:25.210Z,11.83
2023-05-19T06:06:29.461Z,11.74
2023-05-19T06:09:32.771Z,11.97
2023-05-19T06:12:35.757Z,12.24
2023-05-19T06:15:38.605Z,12.31
2023-05-19T06:18:41.404Z,12.15
2023-05-19T06:21:45.487Z,12.52
2023-05-19T06:24:48.619Z,12.78
2023-05-19T06:27:51.465Z,12.81
2023-05-19T06:30:54.137Z,12.75
2023-05-19T06:33:56.784Z,12.86
2023-05-19T06:37:02.304Z,13.21
2023-05-19T06:40:05.684Z,13.43
2023-05-19T06:43:08.390Z,13.43
2023-05-19T06:46:12.969Z,13.66
2023-05-19T06:49:15.652Z,13.54
2023-05-19T06:52:19.648Z,13.65
2023-05-19T06:55:22.514Z,13.67
2023-05-19T06:58:25.171Z,13.81
2023-05-19T07:01:28.116Z,13.56
2023-05-19T07:04:30.927Z,13.70
2023-05-19T07:07:34.921Z,13.92
2023-05-19T07:10:37.825Z,14.01
2023-05-19T07:17:56.396Z,14.01
2023-05-19T07:20:59.345Z,14.30
2023-05-19T07:24:03.334Z,14.56
2023-05-19T07:27:06.900Z,14.53
2023-05-19T07:30:10.380Z,14.82
2023-05-19T07:33:13.117Z,15.12
2023-05-19T07:36:15.888Z,15.55
2023-05-19T07:39:20.204Z,15.75
2023-05-19T07:42:22.912Z,16.10
2023-05-19T07:45:25.652Z,16.17
2023-05-19T07:48:28.326Z,16.32
2023-05-19T07:51:31.551Z,16.71
2023-05-19T07:54:35.645Z,16.96
2023-05-19T07:57:38.409Z,16.99
2023-05-19T08:00:43.022Z,17.03
2023-05-19T08:03:45.743Z,17.14
2023-05-19T08:06:48.433Z,17.27
2023-05-19T08:09:52.514Z,17.39
2023-05-19T08:12:55.322Z,17.46
2023-05-19T08:15:59.912Z,17.45
2023-05-19T08:19:05.268Z,17.66
2023-05-19T08:22:07.983Z,17.69
2023-05-19T08:25:12.154Z,18.03
2023-05-19T08:28:14.864Z,18.00
2023-05-19T08:31:18.359Z,18.19
2023-05-19T08:34:21.147Z,18.02
2023-05-19T08:37:23.756Z,17.92
2023-05-19T08:40:31.639Z,17.99
2023-05-19T08:43:34.656Z,18.08
2023-05-19T08:46:37.441Z,18.28
2023-05-19T08:49:45.164Z,18.32
2023-05-19T08:52:53.615Z,18.13
2023-05-19T08:56:04.051Z,18.46
2023-05-19T08:59:08.605Z,18.53
2023-05-19T09:02:13.985Z,18.15
2023-05-19T09:05:18.304Z,18.33
2023-05-19T09:08:21.066Z,18.60
2023-05-19T09:11:25.091Z,18.56
2023-05-19T09:14:27.937Z,18.50
2023-05-19T09:17:30.578Z,18.69
2023-05-19T09:20:33.266Z,18.83
2023-05-19T09:23:35.966Z,18.82
2023-05-19T09:26:41.129Z,18.95
2023-05-19T09:29:44.283Z,19.14
2023-05-19T09:32:48.022Z,18.96
2023-05-19T09:35:50.865Z,18.71
2023-05-19T09:38:53.617Z,18.99
2023-05-19T09:41:58.592Z,19.30
2023-05-19T09:45:02.312Z,19.25
2023-05-19T09:48:05.651Z,19.44
2023-05-19T09:51:10.299Z,19.44
2023-05-19T09:54:16.280Z,19.92
2023-05-19T09:57:26.992Z,20.57
2023-05-19T10:00:31.019Z,20.82
2023-05-19T10:03:35.172Z,20.66
2023-05-19T10:06:38.357Z,20.96
2023-05-19T10:09:43.596Z,20.77
2023-05-19T10:12:48.268Z,21.30
2023-05-19T10:15:58.027Z,21.89
2023-05-19T10:19:03.415Z,21.89
2023-05-19T10:22:06.294Z,22.30
2023-05-19T10:25:10.670Z,22.60
2023-05-19T10:28:18.503Z,22.96
2023-05-19T10:31:23.328Z,22.91
2023-05-19T10:34:50.270Z,22.89
2023-05-19T10:37:58.767Z,22.81
2023-05-19T10:41:06.510Z,23.50
2023-05-19T10:44:18.658Z,24.34
2023-05-19T10:47:24.939Z,24.22
2023-05-19T10:50:27.799Z,23.49
2023-05-19T10:53:32.851Z,23.82
2023-05-19T10:56:36.313Z,24.42
2023-05-19T10:59:40.922Z,24.12
2023-05-19T11:02:44.443Z,24.77
2023-05-19T11:05:50.024Z,24.18
2023-05-19T11:08:58.644Z,24.12
2023-05-19T11:12:04.558Z,24.10
2023-05-19T11:15:11.286Z,24.50
2023-05-19T11:18:16.292Z,24.27
2023-05-19T11:21:20.890Z,24.27
2023-05-19T11:24:37.578Z,23.51
2023-05-19T11:27:40.811Z,23.81
2023-05-19T11:30:46.818Z,23.57
2023-05-19T11:33:49.656Z,24.42
2023-05-19T11:36:53.707Z,24.87
2023-05-19T11:39:56.376Z,23.67
2023-05-19T11:43:01.684Z,23.93
2023-05-19T11:46:06.121Z,24.38
2023-05-19T11:49:08.957Z,24.64
2023-05-19T11:52:12.050Z,24.48
2023-05-19T11:55:16.914Z,24.98
2023-05-19T11:58:25.991Z,25.68
2023-05-19T12:01:31.779Z,24.76
2023-05-19T12:04:34.463Z,23.72
2023-05-19T12:07:39.366Z,23.23
2023-05-19T12:10:42.418Z,22.58
2023-05-19T12:13:45.591Z,22.46
2023-05-19T12:16:49.673Z,23.14
2023-05-19T12:19:52.657Z,22.70
2023-05-19T12:22:57.194Z,23.07
2023-05-19T12:26:00.527Z,23.18
2023-05-19T12:29:05.257Z,22.97
2023-05-19T12:32:10.544Z,23.20
2023-05-19T12:35:13.714Z,23.70
2023-05-19T12:38:17.081Z,23.81
2023-05-19T12:41:19.817Z,24.54
2023-05-19T12:44:23.444Z,22.97
2023-05-19T12:47:34.644Z,22.79
2023-05-19T12:50:38.699Z,22.21
2023-05-19T12:53:41.638Z,22.03
2023-05-19T12:56:51.136Z,21.55
2023-05-19T12:59:53.832Z,21.68
2023-05-19T13:03:00.169Z,21.56
2023-05-19T13:06:03.000Z,21.80
2023-05-19T13:09:07.171Z,21.22
2023-05-19T13:12:09.882Z,21.50
2023-05-19T13:15:12.941Z,22.52
2023-05-19T13:18:17.161Z,22.59
2023-05-19T13:21:19.837Z,22.85
2023-05-19T13:24:22.534Z,22.66
2023-05-19T13:27:26.232Z,22.18
2023-05-19T13:30:29.125Z,22.05
2023-05-19T13:33:33.211Z,21.58
2023-05-19T13:36:36.572Z,21.24
2023-05-19T13:39:40.458Z,20.86
2023-05-19T13:42:43.181Z,20.46
2023-05-19T13:45:45.813Z,20.21
2023-05-19T13:48:49.778Z,20.39
2023-05-19T13:51:52.581Z,20.43
2023-05-19T13:54:56.559Z,20.65
2023-05-19T13:57:59.219Z,21.18
2023-05-19T14:01:01.972Z,21.27
2023-05-19T14:04:07.155Z,21.25
2023-05-19T14:07:10.328Z,21.04
2023-05-19T14:10:13.000Z,20.74
2023-05-19T14:16:28.712Z,20.33
2023-05-19T14:19:32.762Z,20.01
2023-05-19T14:22:35.373Z,19.93
2023-05-19T14:25:38.022Z,20.15
2023-05-19T14:28:40.647Z,19.84
2023-05-19T14:31:43.375Z,19.66
2023-05-19T14:34:47.441Z,19.69
2023-05-19T14:37:50.093Z,19.80
2023-05-19T14:40:52.742Z,19.80
2023-05-19T14:43:55.389Z,19.79
2023-05-19T14:46:58.233Z,19.75
2023-05-19T14:50:02.340Z,19.91
2023-05-19T14:53:05.106Z,19.75
2023-05-19T14:56:08.821Z,19.78
2023-05-19T14:59:11.500Z,19.75
2023-05-19T15:02:14.158Z,19.55
2023-05-19T15:05:18.200Z,19.24
2023-05-19T15:08:20.884Z,19.56
2023-05-19T15:11:23.516Z,19.63
2023-05-19T15:14:27.796Z,19.78
2023-05-19T15:17:30.904Z,19.70
2023-05-19T15:20:35.233Z,19.75
2023-05-19T15:23:38.077Z,19.79
2023-05-19T15:26:40.798Z,19.68
2023-05-19T15:29:43.430Z,19.70
2023-05-19T15:32:46.198Z,19.70
2023-05-19T15:35:52.044Z,19.47
2023-05-19T15:38:54.679Z,19.35
2023-05-19T15:41:57.356Z,19.45
2023-05-19T15:44:59.991Z,19.42
2023-05-19T15:48:03.152Z,19.03
2023-05-19T15:51:07.334Z,19.16
2023-05-19T15:54:09.952Z,19.05
2023-05-19T15:57:13.553Z,19.03
2023-05-19T16:00:16.842Z,19.10
2023-05-19T16:03:19.745Z,18.84
2023-05-19T16:06:25.063Z,19.05
2023-05-19T16:09:27.713Z,18.94
2023-05-19T16:12:30.337Z,18.84
2023-05-19T16:15:32.967Z,18.87
2023-05-19T16:18:35.640Z,18.95
2023-05-19T16:21:39.637Z,18.85
2023-05-19T16:24:42.264Z,18.66
2023-05-19T16:27:45.256Z,18.41
2023-05-19T16:30:47.909Z,18.37
2023-05-19T16:33:50.530Z,18.50
2023-05-19T16:36:54.532Z,18.58
2023-05-19T16:39:57.213Z,18.57
2023-05-19T16:42:59.892Z,18.26
2023-05-19T16:46:04.478Z,17.98
2023-05-19T16:49:07.244Z,18.06
2023-05-19T16:52:11.817Z,17.97
2023-05-19T16:55:19.374Z,17.78
2023-05-19T16:58:22.015Z,17.73
2023-05-19T17:01:24.800Z,17.68
2023-05-19T17:04:29.443Z,17.61
2023-05-19T17:07:34.702Z,17.59
2023-05-19T17:10:38.553Z,17.76
2023-05-19T17:13:43.422Z,17.60
2023-05-19T17:16:46.570Z,17.63
2023-05-19T17:19:49.231Z,17.64
2023-05-19T17:22:53.203Z,17.60
2023-05-19T17:25:55.992Z,17.45
2023-05-19T17:28:58.668Z,17.42
2023-05-19T17:32:01.323Z,17.25
2023-05-19T17:35:05.385Z,17.44
2023-05-19T17:38:09.363Z,17.41
2023-05-19T17:41:13.895Z,17.40
2023-05-19T17:44:16.492Z,17.42
2023-05-19T17:47:19.146Z,17.29
2023-05-19T17:50:21.748Z,17.29
2023-05-19T17:53:26.722Z,17.38
2023-05-19T17:56:33.989Z,17.41
2023-05-19T17:59:37.197Z,17.28
2023-05-19T18:02:40.849Z,17.10
2023-05-19T18:05:45.401Z,17.03
2023-05-19T18:08:51.381Z,17.03
2023-05-19T18:11:54.987Z,16.95
2023-05-19T18:14:57.770Z,16.96
2023-05-19T18:18:00.793Z,16.87
2023-05-19T18:21:03.469Z,16.79
2023-05-19T18:24:08.218Z,16.64
2023-05-19T18:27:11.069Z,16.77
2023-05-19T18:30:14.358Z,16.81
2023-05-19T18:33:16.963Z,16.65
2023-05-19T18:36:19.614Z,16.75
2023-05-19T18:39:23.608Z,16.57
2023-05-19T18:42:26.254Z,16.53
2023-05-19T18:45:28.904Z,16.48
2023-05-19T18:48:33.062Z,16.45
2023-05-19T18:51:36.033Z,16.15
2023-05-19T18:54:41.869Z,16.23
2023-05-19T18:57:44.475Z,16.04
2023-05-19T19:00:47.996Z,16.07
2023-05-19T19:03:50.678Z,15.98
2023-05-19T19:06:53.363Z,16.03
2023-05-19T19:09:57.333Z,15.75
2023-05-19T19:12:59.977Z,16.02
2023-05-19T19:16:02.671Z,15.90
2023-05-19T19:19:05.408Z,15.96
2023-05-19T19:22:08.109Z,16.01
2023-05-19T19:25:12.233Z,15.78
2023-05-19T19:28:14.871Z,15.63
2023-05-19T19:31:17.625Z,15.60
2023-05-19T19:34:20.389Z,15.45
2023-05-19T19:37:23.021Z,15.44
2023-05-19T19:40:26.980Z,15.44
2023-05-19T19:43:29.695Z,15.53
2023-05-19T19:46:32.345Z,15.45
2023-05-19T19:49:35.295Z,15.16
2023-05-19T19:52:37.978Z,15.31
2023-05-19T19:55:42.971Z,14.91
2023-05-19T19:58:45.670Z,15.09
2023-05-19T20:01:48.337Z,14.98
2023-05-19T20:04:51.048Z,14.91
2023-05-19T20:07:53.665Z,14.91
2023-05-19T20:10:57.733Z,14.87
2023-05-19T20:14:00.356Z,14.78
2023-05-19T20:17:03.467Z,14.57
2023-05-19T20:20:09.893Z,14.64
2023-05-19T20:23:13.315Z,14.57
2023-05-19T20:26:17.483Z,14.49
2023-05-19T20:29:20.147Z,14.44
2023-05-19T20:32:22.770Z,14.43
2023-05-19T20:35:25.564Z,14.41
2023-05-19T20:38:28.418Z,14.33
2023-05-19T20:41:32.439Z,14.23
2023-05-19T20:44:35.074Z,14.24
2023-05-19T20:47:37.794Z,14.14
2023-05-19T20:50:40.613Z,14.10
2023-05-19T20:53:43.250Z,14.11
2023-05-19T20:56:47.210Z,14.00
2023-05-19T20:59:49.876Z,14.01
2023-05-19T21:02:52.579Z,13.98
2023-05-19T21:05:55.760Z,13.88
2023-05-19T21:08:58.417Z,13.94
2023-05-19T21:12:02.802Z,13.82
2023-05-19T21:15:05.990Z,13.86
2023-05-19T21:18:08.683Z,13.66
2023-05-19T21:21:11.828Z,13.48
2023-05-19T21:24:14.827Z,13.67
2023-05-19T21:27:18.864Z,13.73
2023-05-19T21:30:23.439Z,13.71
2023-05-19T21:33:26.281Z,13.68
2023-05-19T21:36:28.971Z,13.69
2023-05-19T21:39:31.858Z,13.60
2023-05-19T21:42:36.260Z,13.54
2023-05-19T21:45:39.091Z,13.51
2023-05-19T21:48:41.737Z,13.41
2023-05-19T21:51:44.385Z,13.33
2023-05-19T21:54:47.778Z,13.29
2023-05-19T21:57:52.072Z,13.37
2023-05-19T22:00:55.965Z,13.35
2023-05-19T22:03:58.677Z,13.20
2023-05-19T22:07:01.419Z,13.27
2023-05-19T22:10:04.296Z,13.16
2023-05-19T22:13:08.477Z,13.06
2023-05-19T22:16:11.299Z,13.09
2023-05-19T22:19:14.559Z,13.16
2023-05-19T22:22:17.260Z,13.13
2023-05-19T22:25:20.144Z,12.96
2023-05-19T22:28:24.129Z,13.07
2023-05-19T22:31:26.793Z,12.99
2023-05-19T22:34:29.453Z,12.74
2023-05-19T22:37:32.131Z,12.75
2023-05-19T22:40:34.989Z,12.61
2023-05-19T22:43:39.248Z,12.65
2023-05-19T22:46:41.885Z,12.81
2023-05-19T22:49:44.547Z,12.86
2023-05-19T22:52:47.176Z,12.80
2023-05-19T22:55:49.798Z,12.76
2023-05-19T22:58:53.796Z,12.74
2023-05-19T23:01:56.506Z,12.71
2023-05-19T23:04:59.132Z,12.52
2023-05-19T23:08:01.786Z,12.59
2023-05-19T23:11:04.509Z,12.57
2023-05-19T23:14:08.651Z,12.52
2023-05-19T23:17:11.322Z,12.56
2023-05-19T23:20:14.595Z,12.50
2023-05-19T23:23:17.288Z,12.48
2023-05-19T23:26:19.921Z,12.49
2023-05-19T23:29:23.947Z,12.43
2023-05-19T23:32:26.747Z,12.47
2023-05-19T23:35:29.486Z,12.22
2023-05-19T23:38:32.202Z,12.41
2023-05-19T23:41:34.836Z,12.43
2023-05-19T23:44:38.884Z,12.41
2023-05-19T23:47:41.597Z,12.44
2023-05-19T23:50:44.294Z,12.15
2023-05-19T23:53:46.931Z,12.27
2023-05-19T23:56:49.578Z,12.35
2023-05-19T23:59:53.611Z,12.33
